Time;durP1;ratioP1;P1;durP2;ratioP2;P2;SDS_P1;SDS_P2;PMS_P1;PMS_P2;Temp;Humidity;BMP_temperature;BMP_pressure;BME280_temperature;BME280_humidity;BME280_pressure;Samples;Min_cycle;Max_cycle;Signal;HPM_P1;HPM_P2
2022/03/25 00:01:59;;;;;;;29.55;10.25;;;307.30;1228.80;;;;;;5053926;28;19989;-76
2022/03/25 00:04:25;;;;;;;20.13;11.32;;;307.30;1228.80;;;;;;5053583;28;20060;-77
2022/03/25 00:06:52;;;;;;;22.42;10.95;;;307.30;1228.80;;;;;;5053897;28;20024;-77
2022/03/25 00:09:17;;;;;;;23.20;9.82;;;307.20;1228.80;;;;;;5053544;28;20025;-77
2022/03/25 00:11:43;;;;;;;21.52;10.30;;;307.20;1228.80;;;;;;5053585;28;20385;-77
2022/03/25 00:14:11;;;;;;;22.15;9.88;;;307.20;1228.80;;;;;;5053828;28;20025;-77
2022/03/25 00:16:37;;;;;;;20.35;9.27;;;307.20;1228.80;;;;;;5053625;28;20017;-78
2022/03/25 00:19:03;;;;;;;19.23;10.02;;;307.20;1228.80;;;;;;5053524;28;20134;-77
2022/03/25 00:21:29;;;;;;;23.77;9.95;;;282.50;1203.20;;;;;;5054561;28;20013;-77
2022/03/25 00:23:55;;;;;;;21.45;9.25;;;282.50;1228.80;;;;;;5053566;28;20029;-77
2022/03/25 00:26:21;;;;;;;21.85;8.70;;;282.50;1228.80;;;;;;5053884;28;20041;-77
2022/03/25 00:28:48;;;;;;;24.08;9.40;;;282.40;1228.80;;;;;;5052908;28;20033;-77
2022/03/25 00:31:13;;;;;;;21.38;8.45;;;282.40;1228.80;;;;;;5053230;28;20036;-77
2022/03/25 00:33:42;;;;;;;22.10;10.15;;;282.40;1228.80;;;;;;5053294;28;20017;-77
2022/03/25 00:36:10;;;;;;;16.50;7.97;;;282.50;1228.80;;;;;;5053224;28;20021;-78
2022/03/25 00:38:36;;;;;;;17.58;8.20;;;282.40;1228.80;;;;;;5050430;28;20107;-77
2022/03/25 00:41:02;;;;;;;20.17;9.35;;;282.40;1228.80;;;;;;5053166;28;20067;-79
2022/03/25 00:43:28;;;;;;;19.25;9.48;;;282.20;1254.40;;;;;;5053021;28;20499;-77
2022/03/25 00:45:54;;;;;;;19.27;8.55;;;282.30;1254.40;;;;;;5052065;28;20040;-77
2022/03/25 00:48:20;;;;;;;27.15;8.43;;;282.20;1254.40;;;;;;5050789;28;20024;-77
2022/03/25 00:50:46;;;;;;;17.65;7.75;;;282.20;1254.40;;;;;;5052835;28;20029;-77
2022/03/25 00:53:11;;;;;;;;;;;282.20;1254.40;;;;;;5054471;28;20025;-77
2022/03/25 00:55:38;;;;;;;24.52;8.55;;;282.00;1254.40;;;;;;5052621;28;19908;-78
2022/03/25 00:58:04;;;;;;;15.68;7.82;;;282.10;1254.40;;;;;;5052489;28;20393;-77
2022/03/25 01:00:30;;;;;;;16.50;8.25;;;282.00;1280.00;;;;;;5053973;28;20031;-77
2022/03/25 01:02:55;;;;;;;;;;;282.00;1280.00;;;;;;5049840;28;20071;-77
2022/03/25 01:05:21;;;;;;;15.25;7.18;;;281.90;1280.00;;;;;;5053629;28;19944;-77
2022/03/25 01:07:47;;;;;;;16.92;7.75;;;281.90;1280.00;;;;;;5053900;28;20049;-77
2022/03/25 01:10:13;;;;;;;;;;;281.90;1280.00;;;;;;5052873;28;20146;-76
2022/03/25 01:12:39;;;;;;;14.30;7.63;;;281.90;1280.00;;;;;;5053612;28;19905;-77
2022/03/25 01:15:05;;;;;;;15.25;7.78;;;281.70;1280.00;;;;;;5052462;28;20030;-77
2022/03/25 01:17:31;;;;;;;16.83;8.23;;;281.70;1280.00;;;;;;5052319;28;20022;-77
2022/03/25 01:19:57;;;;;;;14.73;7.80;;;281.70;1280.00;;;;;;5039214;28;20025;-77
2022/03/25 01:22:23;;;;;;;17.70;8.65;;;281.60;1280.00;;;;;;5050163;28;20066;-77
2022/03/25 01:24:49;;;;;;;16.15;8.20;;;256.90;1280.00;;;;;;5052100;28;20112;-77
2022/03/25 01:27:15;;;;;;;19.60;8.70;;;256.90;1280.00;;;;;;5051956;28;20138;-76
2022/03/25 01:29:41;;;;;;;17.52;8.10;;;256.60;1280.00;;;;;;5052073;28;20060;-77
2022/03/25 01:32:08;;;;;;;21.42;7.75;;;256.60;1280.00;;;;;;5052121;28;20542;-77
2022/03/25 01:34:34;;;;;;;20.88;7.85;;;256.70;1280.00;;;;;;5052088;28;20095;-77
2022/03/25 01:37:02;;;;;;;18.02;7.68;;;256.60;1305.60;;;;;;5049501;28;20027;-76
2022/03/25 01:39:28;;;;;;;17.25;8.07;;;256.50;1305.60;;;;;;5052021;28;20121;-78
2022/03/25 01:41:55;;;;;;;21.05;9.80;;;256.50;1305.60;;;;;;5052086;28;20056;-78
2022/03/25 01:44:29;;;;;;;16.58;7.88;;;256.50;1305.60;;;;;;5049378;28;20013;-77
2022/03/25 01:46:56;;;;;;;19.67;8.15;;;256.40;1331.20;;;;;;5051893;28;20121;-77
2022/03/25 01:49:23;;;;;;;15.98;7.50;;;256.30;1331.20;;;;;;5052056;28;20082;-77
2022/03/25 01:51:51;;;;;;;14.05;7.13;;;256.20;1331.20;;;;;;5051723;28;20041;-76
2022/03/25 01:54:29;;;;;;;15.32;6.35;;;256.50;1331.20;;;;;;5051793;28;20112;-77
2022/03/25 01:56:59;;;;;;;21.58;6.57;;;256.30;1331.20;;;;;;5051734;28;20024;-76
2022/03/25 01:59:25;;;;;;;15.02;6.47;;;256.30;1331.20;;;;;;5049555;28;20048;-78
2022/03/25 02:01:51;;;;;;;14.88;6.68;;;256.50;1331.20;;;;;;5051805;28;20028;-77
2022/03/25 02:04:17;;;;;;;15.27;6.68;;;256.50;1331.20;;;;;;5051539;28;20075;-77
2022/03/25 02:06:44;;;;;;;22.65;7.85;;;256.30;1331.20;;;;;;5037810;28;20112;-77
2022/03/25 02:09:10;;;;;;;12.88;7.47;;;256.30;1331.20;;;;;;5051526;28;20539;-77
2022/03/25 02:11:37;;;;;;;25.58;7.45;;;256.30;1331.20;;;;;;5051628;28;20028;-77
2022/03/25 02:14:03;;;;;;;15.15;6.65;;;256.20;1356.80;;;;;;5051734;28;20516;-77
2022/03/25 02:16:45;;;;;;;27.65;7.22;;;256.10;1356.80;;;;;;5051578;28;20078;-77
2022/03/25 02:19:12;;;;;;;21.10;7.63;;;256.00;1356.80;;;;;;5050172;28;20580;-76
2022/03/25 02:21:42;;;;;;;11.27;6.18;;;231.30;1382.40;;;;;;5052839;28;20020;-77
2022/03/25 02:24:09;;;;;;;17.55;7.43;;;231.30;1382.40;;;;;;5051590;28;20460;-77
2022/03/25 02:26:36;;;;;;;15.35;6.65;;;231.30;1382.40;;;;;;5051335;28;20041;-79
2022/03/25 02:29:05;;;;;;;13.35;6.82;;;256.00;1382.40;;;;;;5048766;28;20037;-77
2022/03/25 02:31:31;;;;;;;20.85;7.50;;;231.30;1382.40;;;;;;5050862;28;20450;-76
2022/03/25 02:33:58;;;;;;;;;;;256.00;1382.40;;;;;;5051769;28;20045;-79
2022/03/25 02:36:23;;;;;;;;;;;256.00;1382.40;;;;;;5049275;28;19988;-76
2022/03/25 02:38:49;;;;;;;13.80;6.30;;;231.10;1382.40;;;;;;5051506;28;20363;-77
2022/03/25 02:41:15;;;;;;;;;;;231.30;1382.40;;;;;;5051871;28;20032;-79
2022/03/25 02:43:40;;;;;;;19.52;7.22;;;231.20;1382.40;;;;;;5051180;28;19905;-77
2022/03/25 02:46:06;;;;;;;;;;;231.10;1408.00;;;;;;5051753;28;20017;-77
2022/03/25 02:48:33;;;;;;;17.80;7.03;;;231.00;1408.00;;;;;;5052516;28;19911;-77
2022/03/25 02:50:59;;;;;;;18.27;7.63;;;231.00;1408.00;;;;;;5053470;28;20056;-76
2022/03/25 02:53:25;;;;;;;14.07;6.65;;;231.00;1408.00;;;;;;5055301;28;20492;-77
2022/03/25 02:55:51;;;;;;;13.07;6.82;;;231.00;1408.00;;;;;;5054623;28;20057;-77
2022/03/25 02:58:18;;;;;;;14.90;6.60;;;230.80;1408.00;;;;;;5054953;28;20021;-80
2022/03/25 03:00:44;;;;;;;13.18;6.72;;;230.90;1433.60;;;;;;5052342;28;20017;-77
2022/03/25 03:03:09;;;;;;;;;;;230.90;1433.60;;;;;;5055543;28;20111;-77
2022/03/25 03:05:35;;;;;;;11.35;6.32;;;230.80;1433.60;;;;;;5055197;28;19954;-77
2022/03/25 03:08:01;;;;;;;;;;;230.80;1433.60;;;;;;5055335;28;20062;-77
2022/03/25 03:10:27;;;;;;;13.82;6.88;;;230.80;1433.60;;;;;;5054703;28;20331;-78
2022/03/25 03:12:54;;;;;;;21.05;6.85;;;230.70;1433.60;;;;;;5055041;28;20381;-77
2022/03/25 03:15:21;;;;;;;11.27;6.25;;;230.70;1459.20;;;;;;5054617;28;20029;-77
2022/03/25 03:17:48;;;;;;;17.77;7.82;;;230.70;1433.60;;;;;;5054636;28;20113;-76
2022/03/25 03:20:18;;;;;;;15.48;6.53;;;230.80;1433.60;;;;;;5054707;28;20075;-77
2022/03/25 03:22:44;;;;;;;20.17;7.72;;;230.70;1433.60;;;;;;5054484;28;20021;-77
2022/03/25 03:25:10;;;;;;;;;;;230.70;1459.20;;;;;;5056262;28;20100;-77
2022/03/25 03:27:39;;;;;;;14.27;6.93;;;230.80;1459.20;;;;;;5054188;28;20026;-77
2022/03/25 03:30:08;;;;;;;15.20;6.53;;;230.70;1459.20;;;;;;5041062;28;20037;-77
2022/03/25 03:32:34;;;;;;;13.93;6.97;;;230.60;1459.20;;;;;;5052950;28;20017;-77
2022/03/25 03:35:01;;;;;;;14.60;6.63;;;230.60;1459.20;;;;;;5055672;28;20025;-76
2022/03/25 03:37:27;;;;;;;17.05;7.60;;;230.70;1459.20;;;;;;5055761;28;20021;-77
2022/03/25 03:39:53;;;;;;;18.80;6.53;;;230.60;1459.20;;;;;;5055930;28;20032;-77
2022/03/25 03:42:18;;;;;;;;;;;230.80;1433.60;;;;;;5054714;28;20013;-77
2022/03/25 03:44:45;;;;;;;19.90;6.88;;;230.70;1459.20;;;;;;5048249;28;19947;-77
2022/03/25 03:47:11;;;;;;;;;;;230.50;1459.20;;;;;;5053775;28;20013;-77
2022/03/25 03:49:38;;;;;;;17.55;6.50;;;230.60;1459.20;;;;;;5055249;28;19927;-77
2022/03/25 03:52:05;;;;;;;12.35;6.05;;;230.50;1459.20;;;;;;5041328;28;20025;-76
2022/03/25 03:54:32;;;;;;;12.98;6.78;;;230.60;1459.20;;;;;;5054133;28;20017;-77
2022/03/25 03:56:58;;;;;;;16.85;6.95;;;230.70;1459.20;;;;;;5055268;28;20480;-77
2022/03/25 03:59:25;;;;;;;13.13;6.80;;;230.70;1459.20;;;;;;5055029;28;20033;-77
2022/03/25 04:01:50;;;;;;;15.10;7.03;;;230.70;1459.20;;;;;;5054024;28;20037;-77
2022/03/25 04:04:17;;;;;;;;;;;230.60;1484.80;;;;;;5055626;28;20483;-77
2022/03/25 04:06:43;;;;;;;14.10;6.68;;;230.70;1459.20;;;;;;5053960;28;19905;-77
2022/03/25 04:09:09;;;;;;;19.13;7.25;;;230.70;1459.20;;;;;;5053663;28;20029;-77
2022/03/25 04:11:35;;;;;;;;;;;230.70;1459.20;;;;;;5054065;28;20028;-77
2022/03/25 04:14:01;;;;;;;15.27;6.93;;;230.60;1459.20;;;;;;5054640;28;19995;-76
2022/03/25 04:16:28;;;;;;;;;;;230.60;1459.20;;;;;;5050133;28;20555;-77
2022/03/25 04:18:55;;;;;;;14.70;7.10;;;230.60;1459.20;;;;;;5054867;28;20388;-78
2022/03/25 04:21:21;;;;;;;15.10;6.88;;;230.50;1459.20;;;;;;5054714;28;20024;-78
2022/03/25 04:23:46;;;;;;;;;;;230.50;1484.80;;;;;;5054174;28;20358;-77
2022/03/25 04:26:12;;;;;;;14.88;6.50;;;205.70;1484.80;;;;;;5053679;28;19956;-77
2022/03/25 04:28:38;;;;;;;;;;;205.70;1510.40;;;;;;5053595;28;20519;-78
2022/03/25 04:31:04;;;;;;;18.48;7.10;;;230.40;1484.80;;;;;;5053126;28;20273;-77
2022/03/25 04:33:31;;;;;;;16.52;7.15;;;205.70;1484.80;;;;;;5053307;28;20017;-77
2022/03/25 04:35:57;;;;;;;15.68;7.00;;;205.70;1510.40;;;;;;5053226;28;20025;-77
2022/03/25 04:38:23;;;;;;;22.77;7.78;;;205.70;1510.40;;;;;;5053157;28;20045;-77
2022/03/25 04:40:49;;;;;;;;;;;205.60;1510.40;;;;;;5050989;28;20029;-77
2022/03/25 04:43:15;;;;;;;19.00;7.10;;;205.60;1510.40;;;;;;5052903;28;20157;-78
2022/03/25 04:45:41;;;;;;;12.75;6.82;;;205.60;1510.40;;;;;;5054097;28;20021;-78
2022/03/25 04:48:10;;;;;;;13.20;6.82;;;205.50;1510.40;;;;;;5052869;28;20502;-77
2022/03/25 04:50:39;;;;;;;14.00;6.53;;;205.60;1510.40;;;;;;5052780;28;20091;-77
2022/03/25 04:53:05;;;;;;;20.38;7.40;;;205.60;1536.00;;;;;;5052752;28;20033;-77
2022/03/25 04:55:31;;;;;;;;;;;205.60;1536.00;;;;;;5053299;28;20036;-78
2022/03/25 04:57:57;;;;;;;12.52;6.60;;;205.60;1510.40;;;;;;5054173;28;19921;-76
2022/03/25 05:00:22;;;;;;;;;;;205.60;1536.00;;;;;;5052746;28;20474;-77
2022/03/25 05:02:49;;;;;;;17.27;6.70;;;205.60;1510.40;;;;;;5052800;28;19904;-76
2022/03/25 05:05:15;;;;;;;11.57;6.07;;;205.60;1536.00;;;;;;5052523;28;20029;-77
2022/03/25 05:07:46;;;;;;;18.38;6.72;;;205.40;1536.00;;;;;;5052628;28;20024;-77
2022/03/25 05:10:14;;;;;;;13.27;6.85;;;205.40;1536.00;;;;;;5047621;28;20026;-78
2022/03/25 05:12:41;;;;;;;18.90;6.97;;;205.40;1561.60;;;;;;5045319;28;20108;-76
2022/03/25 05:15:07;;;;;;;16.48;6.85;;;205.40;1561.60;;;;;;5053127;28;20110;-77
2022/03/25 05:17:33;;;;;;;14.77;7.32;;;205.40;1561.60;;;;;;5053479;28;20024;-79
2022/03/25 05:19:58;;;;;;;;;;;205.40;1561.60;;;;;;5052540;28;20401;-77
2022/03/25 05:22:25;;;;;;;17.08;8.60;;;205.60;1561.60;;;;;;5053687;28;19905;-78
2022/03/25 05:24:51;;;;;;;19.00;9.63;;;230.40;1561.60;;;;;;5050916;28;20028;-77
2022/03/25 05:27:16;;;;;;;;;;;230.50;1536.00;;;;;;5053554;28;20455;-77
2022/03/25 05:29:42;;;;;;;20.88;8.25;;;230.80;1536.00;;;;;;5053470;28;19963;-77
2022/03/25 05:32:08;;;;;;;;;;;230.70;1536.00;;;;;;5052740;28;20017;-78
2022/03/25 05:34:34;;;;;;;24.25;8.50;;;230.80;1536.00;;;;;;5053454;28;19959;-76
2022/03/25 05:36:59;;;;;;;;;;;230.90;1510.40;;;;;;5052901;28;20504;-80
2022/03/25 05:39:26;;;;;;;19.65;8.98;;;230.90;1510.40;;;;;;5052935;28;19916;-76
2022/03/25 05:41:51;;;;;;;17.75;8.40;;;231.00;1510.40;;;;;;5052282;28;20432;-77
2022/03/25 05:44:18;;;;;;;;;;;231.00;1510.40;;;;;;5052863;28;20029;-79
2022/03/25 05:46:43;;;;;;;24.23;11.27;;;230.90;1510.40;;;;;;5052327;28;20275;-77
2022/03/25 05:49:09;;;;;;;;;;;231.00;1510.40;;;;;;5052712;28;20037;-77
2022/03/25 05:51:35;;;;;;;18.55;9.43;;;231.10;1510.40;;;;;;5052462;28;19955;-77
2022/03/25 05:54:00;;;;;;;;;;;230.90;1536.00;;;;;;5052712;28;20080;-78
2022/03/25 05:56:26;;;;;;;20.45;9.25;;;231.10;1510.40;;;;;;5052162;28;19908;-77
2022/03/25 05:58:51;;;;;;;;;;;231.20;1510.40;;;;;;5053896;28;20025;-77
2022/03/25 06:01:17;;;;;;;19.13;10.15;;;231.20;1536.00;;;;;;5053484;28;19912;-77
2022/03/25 06:03:44;;;;;;;;;;;231.30;1536.00;;;;;;5052676;28;20115;-77
2022/03/25 06:06:10;;;;;;;16.92;8.52;;;256.00;1536.00;;;;;;5052052;28;19911;-77
2022/03/25 06:08:36;;;;;;;;;;;231.30;1536.00;;;;;;5052574;28;20032;-77
2022/03/25 06:11:02;;;;;;;21.47;9.27;;;256.10;1510.40;;;;;;5052072;28;19919;-80
2022/03/25 06:13:28;;;;;;;20.20;9.88;;;256.20;1510.40;;;;;;5053268;28;20028;-79
2022/03/25 06:15:54;;;;;;;;;;;256.30;1510.40;;;;;;5052499;28;20381;-78
2022/03/25 06:18:20;;;;;;;20.63;9.68;;;256.30;1510.40;;;;;;5053304;28;19905;-77
2022/03/25 06:20:46;;;;;;;22.95;9.75;;;256.30;1536.00;;;;;;5051830;28;20448;-78
2022/03/25 06:23:12;;;;;;;;;;;256.20;1510.40;;;;;;5053609;28;20025;-78
2022/03/25 06:25:38;;;;;;;21.33;10.73;;;256.40;1510.40;;;;;;5053283;28;19908;-78
2022/03/25 06:28:07;;;;;;;22.70;10.25;;;256.30;1510.40;;;;;;5057086;28;20045;-77
2022/03/25 06:30:36;;;;;;;17.70;9.05;;;256.40;1510.40;;;;;;5055728;28;20443;-78
2022/03/25 06:33:04;;;;;;;19.98;9.43;;;256.50;1510.40;;;;;;5056828;28;20091;-75
2022/03/25 06:35:30;;;;;;;19.58;10.10;;;256.70;1510.40;;;;;;5055794;28;20022;-75
2022/03/25 06:37:56;;;;;;;20.15;8.48;;;256.80;1510.40;;;;;;5057010;28;20075;-75
2022/03/25 06:40:23;;;;;;;20.08;10.55;;;256.80;1484.80;;;;;;5056851;28;20025;-80
2022/03/25 06:42:50;;;;;;;19.98;10.30;;;281.60;1510.40;;;;;;5055506;28;20484;-77
2022/03/25 06:45:18;;;;;;;21.00;8.93;;;281.70;1484.80;;;;;;5055369;28;20025;-76
2022/03/25 06:47:45;;;;;;;32.50;10.32;;;281.70;1484.80;;;;;;5055278;28;20033;-75
2022/03/25 06:50:13;;;;;;;19.80;10.65;;;281.90;1484.80;;;;;;5056257;28;20067;-79
2022/03/25 06:52:40;;;;;;;18.88;9.95;;;281.90;1459.20;;;;;;5052704;28;20040;-76
2022/03/25 06:55:06;;;;;;;21.67;12.68;;;282.00;1459.20;;;;;;5055777;28;20035;-76
2022/03/25 06:57:32;;;;;;;23.85;11.38;;;307.50;1484.80;;;;;;5054772;28;20065;-76
2022/03/25 06:59:58;;;;;;;25.02;10.38;;;282.40;1433.60;;;;;;5054551;28;20535;-78
2022/03/25 07:02:24;;;;;;;31.80;11.57;;;307.20;1459.20;;;;;;5054722;28;20021;-76
2022/03/25 07:04:50;;;;;;;41.80;11.80;;;307.60;1433.60;;;;;;5055152;28;20032;-77
2022/03/25 07:07:26;;;;;;;19.83;9.75;;;307.70;1408.00;;;;;;5055281;28;20025;-76
2022/03/25 07:09:52;;;;;;;20.48;9.60;;;307.60;1433.60;;;;;;5053251;28;20037;-74
2022/03/25 07:12:18;;;;;;;18.63;10.60;;;307.80;1433.60;;;;;;5056050;28;20473;-77
2022/03/25 07:14:44;;;;;;;21.80;11.48;;;308.10;1433.60;;;;;;5054533;28;20085;-78
2022/03/25 07:17:10;;;;;;;19.17;10.27;;;308.10;1408.00;;;;;;5054775;28;20017;-77
2022/03/25 07:19:36;;;;;;;24.52;10.15;;;332.80;1408.00;;;;;;5054332;28;20051;-77
2022/03/25 07:22:02;;;;;;;25.52;9.95;;;308.10;1408.00;;;;;;5056422;28;20491;-77
2022/03/25 07:24:27;;;;;;;;;;;332.90;1408.00;;;;;;5055174;28;20033;-77
2022/03/25 07:26:53;;;;;;;24.30;10.40;;;332.90;1408.00;;;;;;5055541;28;19924;-79
2022/03/25 07:29:19;;;;;;;23.90;9.27;;;333.00;1408.00;;;;;;5054782;28;20055;-77
2022/03/25 07:31:45;;;;;;;22.25;11.23;;;333.20;1408.00;;;;;;5054561;28;20037;-76
2022/03/25 07:34:11;;;;;;;31.13;10.95;;;333.40;1382.40;;;;;;5054353;28;20031;-80
2022/03/25 07:36:36;;;;;;;18.85;9.50;;;333.30;1382.40;;;;;;5055637;28;20346;-76
2022/03/25 07:39:03;;;;;;;19.38;9.25;;;333.50;1382.40;;;;;;5055829;28;20024;-75
2022/03/25 07:41:29;;;;;;;31.65;10.30;;;333.60;1382.40;;;;;;5055653;28;20512;-77
2022/03/25 07:43:55;;;;;;;18.85;9.57;;;333.70;1382.40;;;;;;5055711;28;20063;-76
2022/03/25 07:46:23;;;;;;;30.17;11.02;;;333.70;1356.80;;;;;;5054384;28;20595;-77
2022/03/25 07:48:49;;;;;;;20.15;10.23;;;358.50;1356.80;;;;;;5054511;28;20032;-77
2022/03/25 07:51:15;;;;;;;17.60;9.50;;;358.50;1331.20;;;;;;5054402;28;20044;-76
2022/03/25 07:53:41;;;;;;;20.95;10.57;;;358.60;1331.20;;;;;;5054334;28;20025;-77
2022/03/25 07:56:06;;;;;;;22.73;11.48;;;358.70;1331.20;;;;;;5054132;28;20029;-76
2022/03/25 07:58:32;;;;;;;21.25;10.30;;;358.80;1331.20;;;;;;5055580;28;20033;-78
2022/03/25 08:00:58;;;;;;;18.65;9.25;;;358.80;1305.60;;;;;;5054063;28;20029;-77
2022/03/25 08:03:24;;;;;;;20.20;10.13;;;358.90;1305.60;;;;;;5053780;28;20063;-79
2022/03/25 08:05:50;;;;;;;22.55;11.38;;;359.00;1305.60;;;;;;5054275;28;20021;-78
2022/03/25 08:08:18;;;;;;;16.05;8.77;;;359.00;1305.60;;;;;;5054060;28;20047;-78
2022/03/25 08:10:45;;;;;;;16.02;8.88;;;359.10;1280.00;;;;;;5054180;28;20489;-79
2022/03/25 08:13:11;;;;;;;16.00;8.80;;;359.20;1280.00;;;;;;5054296;28;20067;-77
2022/03/25 08:15:38;;;;;;;19.65;9.57;;;359.20;1280.00;;;;;;5054002;28;20561;-78
2022/03/25 08:18:10;;;;;;;18.85;9.75;;;359.20;1254.40;;;;;;5054091;28;20116;-78
2022/03/25 08:20:39;;;;;;;14.80;9.50;;;359.30;1280.00;;;;;;5055353;28;20043;-77
2022/03/25 08:23:07;;;;;;;23.15;8.70;;;359.20;1280.00;;;;;;5054147;28;20025;-78
2022/03/25 08:28:19;;;;;;;24.38;10.40;;;359.20;1280.00;;;;;;5055660;28;20051;-78
2022/03/25 08:30:46;;;;;;;24.33;9.93;;;359.20;1305.60;;;;;;5053618;28;20036;-78
2022/03/25 08:33:13;;;;;;;18.77;10.23;;;359.30;1305.60;;;;;;5053712;28;20125;-78
2022/03/25 08:35:40;;;;;;;17.88;9.00;;;359.30;1254.40;;;;;;5053949;28;20102;-78
2022/03/25 08:38:08;;;;;;;18.52;9.00;;;384.10;1254.40;;;;;;5053644;28;20115;-78
2022/03/25 08:40:35;;;;;;;24.20;9.07;;;384.10;1228.80;;;;;;5053564;28;20029;-76
2022/03/25 08:43:02;;;;;;;19.08;9.07;;;384.20;1254.40;;;;;;5053290;28;20021;-75
2022/03/25 08:45:28;;;;;;;22.23;9.05;;;384.20;1228.80;;;;;;5053165;28;20465;-76
2022/03/25 08:47:54;;;;;;;19.10;9.10;;;384.20;1228.80;;;;;;5052634;28;20052;-76
2022/03/25 08:50:22;;;;;;;23.90;8.32;;;384.20;1203.20;;;;;;5054509;28;20063;-76
2022/03/25 08:52:49;;;;;;;15.32;7.57;;;384.40;1203.20;;;;;;5054198;28;20013;-76
2022/03/25 08:55:18;;;;;;;21.00;9.75;;;384.40;1177.60;;;;;;5052947;28;20366;-75
2022/03/25 08:57:44;;;;;;;15.52;8.35;;;384.30;1177.60;;;;;;5053128;28;20053;-76
2022/03/25 09:00:13;;;;;;;21.00;8.70;;;384.30;1177.60;;;;;;5054240;28;20024;-77
2022/03/25 09:02:40;;;;;;;18.77;8.70;;;384.40;1177.60;;;;;;5054023;28;20028;-76
2022/03/25 09:05:07;;;;;;;17.23;9.00;;;384.50;1177.60;;;;;;5052942;28;20029;-77
2022/03/25 09:07:34;;;;;;;15.40;8.73;;;384.70;1177.60;;;;;;5054464;28;20480;-76
2022/03/25 09:10:00;;;;;;;22.23;9.55;;;384.70;1203.20;;;;;;5052825;28;20044;-77
2022/03/25 09:12:25;;;;;;;17.10;8.23;;;384.70;1177.60;;;;;;5052900;28;20025;-77
2022/03/25 09:14:51;;;;;;;15.60;7.95;;;384.70;1152.00;;;;;;5053975;28;20021;-76
2022/03/25 09:17:17;;;;;;;18.40;8.32;;;409.60;1203.20;;;;;;5053955;28;20066;-79
2022/03/25 09:19:44;;;;;;;17.38;8.00;;;409.70;1203.20;;;;;;5054137;28;20029;-79
2022/03/25 09:22:10;;;;;;;19.13;6.88;;;409.90;1177.60;;;;;;5054374;28;20485;-79
2022/03/25 09:24:36;;;;;;;17.35;7.60;;;410.00;1203.20;;;;;;5053943;28;20496;-79
2022/03/25 09:27:02;;;;;;;17.35;6.97;;;410.20;1152.00;;;;;;5053934;28;20047;-79
2022/03/25 09:29:28;;;;;;;14.23;6.93;;;410.20;1126.40;;;;;;5053991;28;20037;-78
2022/03/25 09:31:54;;;;;;;12.85;6.78;;;410.40;1126.40;;;;;;5052626;28;20032;-78
2022/03/25 09:37:05;;;;;;;15.48;7.32;;;410.50;1126.40;;;;;;5054500;28;20035;-78
2022/03/25 09:39:31;;;;;;;14.73;6.93;;;410.50;1100.80;;;;;;5052770;28;20033;-79
2022/03/25 09:41:58;;;;;;;21.88;8.73;;;435.20;1100.80;;;;;;5051969;28;20064;-78
2022/03/25 09:44:24;;;;;;;17.13;7.47;;;435.30;1126.40;;;;;;5052572;28;20033;-79
2022/03/25 09:46:51;;;;;;;15.32;7.15;;;435.50;1100.80;;;;;;5052566;28;20029;-79
2022/03/25 09:49:18;;;;;;;12.98;7.65;;;435.70;1075.20;;;;;;5052858;28;20068;-79
2022/03/25 09:51:44;;;;;;;20.95;7.88;;;435.70;1075.20;;;;;;5052743;28;20393;-78
2022/03/25 09:54:13;;;;;;;16.02;7.50;;;435.70;1100.80;;;;;;5053533;28;20024;-78
2022/03/25 09:56:40;;;;;;;19.00;7.63;;;435.80;1100.80;;;;;;5053436;28;20473;-78
2022/03/25 09:59:07;;;;;;;19.27;8.30;;;435.90;1075.20;;;;;;5051915;28;20505;-77
2022/03/25 10:01:34;;;;;;;16.15;7.72;;;460.80;1100.80;;;;;;5052022;28;20036;-78
2022/03/25 10:04:00;;;;;;;15.75;8.20;;;460.80;1100.80;;;;;;5052642;28;20017;-83
2022/03/25 10:06:26;;;;;;;16.38;8.13;;;461.00;1100.80;;;;;;5053980;28;20099;-79
2022/03/25 10:09:01;;;;;;;29.70;8.60;;;461.10;1100.80;;;;;;5052358;28;20021;-78
2022/03/25 10:11:32;;;;;;;16.85;9.45;;;461.20;1100.80;;;;;;5052113;28;20033;-78
2022/03/25 10:14:18;;;;;;;16.65;7.53;;;461.20;1075.20;;;;;;5052158;28;20044;-80
2022/03/25 10:16:55;;;;;;;15.52;7.72;;;461.20;1075.20;;;;;;5053598;28;20059;-79
2022/03/25 10:19:24;;;;;;;28.23;9.45;;;461.50;1075.20;;;;;;5051836;28;20025;-79
2022/03/25 10:21:59;;;;;;;16.17;7.55;;;461.40;1049.60;;;;;;5051801;28;20021;-79
2022/03/25 10:24:49;;;;;;;14.95;8.60;;;461.40;1049.60;;;;;;5053528;28;20051;-80
2022/03/25 10:27:28;;;;;;;17.13;8.60;;;461.50;1049.60;;;;;;5052452;28;20049;-80
2022/03/25 10:29:54;;;;;;;14.32;8.48;;;486.50;1049.60;;;;;;5051473;28;20493;-78
2022/03/25 10:32:25;;;;;;;23.80;8.50;;;486.90;1049.60;;;;;;5051286;28;20030;-78
2022/03/25 10:35:09;;;;;;;25.27;8.45;;;487.00;1049.60;;;;;;5050242;28;20017;-78
2022/03/25 10:37:36;;;;;;;19.98;8.55;;;486.90;1024.00;;;;;;5051346;28;20039;-81
2022/03/25 10:40:05;;;;;;;20.45;8.38;;;486.80;1024.00;;;;;;5051755;28;20432;-81
2022/03/25 10:42:33;;;;;;;18.80;8.10;;;486.80;998.40;;;;;;5049387;28;20067;-80
2022/03/25 10:44:59;;;;;;;24.25;9.10;;;486.90;1024.00;;;;;;5053449;28;20025;-80
2022/03/25 10:47:28;;;;;;;18.55;8.02;;;487.20;1024.00;;;;;;5051697;28;20036;-79
2022/03/25 10:49:56;;;;;;;18.23;9.02;;;487.30;998.40;;;;;;5052172;28;20163;-80
2022/03/25 10:52:30;;;;;;;16.65;7.97;;;512.20;972.80;;;;;;5053286;28;20032;-80
2022/03/25 10:55:18;;;;;;;15.20;8.63;;;512.00;972.80;;;;;;5053034;28;20023;-78
2022/03/25 10:57:54;;;;;;;19.90;9.00;;;512.20;972.80;;;;;;5053072;28;20055;-79
2022/03/25 11:00:22;;;;;;;15.95;9.05;;;512.10;972.80;;;;;;5052263;28;20025;-77
2022/03/25 11:02:48;;;;;;;20.60;8.85;;;512.30;972.80;;;;;;5050692;28;20166;-77
2022/03/25 11:05:14;;;;;;;13.63;7.40;;;512.60;972.80;;;;;;5051177;28;20469;-79
2022/03/25 11:07:43;;;;;;;19.15;9.00;;;512.80;947.20;;;;;;5052614;28;20489;-79
2022/03/25 11:10:14;;;;;;;37.75;9.80;;;512.70;947.20;;;;;;5051158;28;20037;-79
2022/03/25 11:12:47;;;;;;;15.93;8.32;;;512.90;947.20;;;;;;5055501;28;20024;-79
2022/03/25 11:15:15;;;;;;;22.13;9.50;;;537.80;972.80;;;;;;5055973;28;20438;-80
2022/03/25 11:17:42;;;;;;;17.88;8.50;;;537.60;947.20;;;;;;5054974;28;20461;-78
2022/03/25 11:20:13;;;;;;;16.55;7.93;;;537.60;947.20;;;;;;5055114;28;20464;-78
2022/03/25 11:22:46;;;;;;;15.70;8.85;;;537.60;921.60;;;;;;5055316;28;20057;-78
2022/03/25 11:25:18;;;;;;;15.55;8.80;;;538.00;947.20;;;;;;5054807;28;20432;-78
2022/03/25 11:27:57;;;;;;;12.70;7.97;;;537.90;921.60;;;;;;5054581;28;20464;-78
2022/03/25 11:30:22;;;;;;;16.10;8.68;;;537.80;947.20;;;;;;5054836;28;20043;-78
2022/03/25 11:32:57;;;;;;;15.75;8.65;;;537.80;921.60;;;;;;5054281;28;20123;-78
2022/03/25 11:35:24;;;;;;;17.77;8.48;;;537.90;921.60;;;;;;5056079;28;20029;-77
2022/03/25 11:38:13;;;;;;;18.23;8.95;;;538.40;896.00;;;;;;5054665;28;20027;-79
2022/03/25 11:40:47;;;;;;;17.08;8.95;;;538.50;921.60;;;;;;5051327;28;20389;-78
2022/03/25 11:43:14;;;;;;;31.48;8.85;;;538.10;921.60;;;;;;5054357;28;20029;-76
2022/03/25 11:45:40;;;;;;;14.63;8.13;;;538.40;896.00;;;;;;5055831;28;20071;-77
2022/03/25 11:48:06;;;;;;;14.63;7.45;;;538.10;896.00;;;;;;5055502;28;20431;-77
2022/03/25 11:50:43;;;;;;;17.00;8.73;;;538.10;921.60;;;;;;5053788;28;20025;-78
2022/03/25 11:53:12;;;;;;;29.60;12.50;;;538.10;896.00;;;;;;5053284;28;20113;-77
2022/03/25 11:56:04;;;;;;;14.30;8.32;;;538.30;896.00;;;;;;5055425;28;20057;-76
2022/03/25 11:58:37;;;;;;;21.50;8.63;;;538.20;896.00;;;;;;5055253;28;20504;-81
2022/03/25 12:01:16;;;;;;;13.75;8.10;;;538.40;896.00;;;;;;5052720;28;20104;-79
2022/03/25 12:03:47;;;;;;;23.85;8.05;;;538.50;870.40;;;;;;5052917;28;20040;-77
2022/03/25 12:06:13;;;;;;;19.17;9.38;;;538.50;870.40;;;;;;5051373;28;20029;-77
2022/03/25 12:08:53;;;;;;;12.98;7.45;;;538.40;870.40;;;;;;5055119;28;20017;-77
2022/03/25 12:11:55;;;;;;;12.07;7.38;;;563.20;896.00;;;;;;5053305;28;20037;-77
2022/03/25 12:14:31;;;;;;;16.38;9.02;;;538.40;844.80;;;;;;5054406;28;20025;-76
2022/03/25 12:17:12;;;;;;;25.58;8.15;;;538.30;870.40;;;;;;5053028;28;20120;-78
2022/03/25 12:19:44;;;;;;;18.27;9.30;;;538.50;844.80;;;;;;5053296;28;20047;-77
2022/03/25 12:22:23;;;;;;;14.02;8.32;;;538.50;870.40;;;;;;5050522;28;20435;-77
2022/03/25 12:24:59;;;;;;;18.08;9.43;;;538.50;870.40;;;;;;5052039;28;20108;-78
2022/03/25 12:27:25;;;;;;;23.60;10.45;;;538.40;896.00;;;;;;5052908;28;20041;-76